createdAt,value
2023-04-17T00:01:44.481Z,91.17
2023-04-17T00:06:45.231Z,91.17
2023-04-17T00:11:45.839Z,90.91
2023-04-17T00:16:47.839Z,91.32
2023-04-17T00:21:48.513Z,91.21
2023-04-17T00:26:49.097Z,91.07
2023-04-17T00:31:51.188Z,91.56
2023-04-17T00:36:52.037Z,91.45
2023-04-17T00:41:52.873Z,90.99
2023-04-17T00:46:54.995Z,90.92
2023-04-17T00:51:55.948Z,91.02
2023-04-17T00:56:58.195Z,91.31
2023-04-17T01:02:01.485Z,91.47
2023-04-17T01:07:02.250Z,91.27
2023-04-17T01:12:22.246Z,91.39
2023-04-17T01:17:26.242Z,91.10
2023-04-17T01:22:26.973Z,90.84
2023-04-17T01:27:32.863Z,91.09
2023-04-17T01:32:33.552Z,91.40
2023-04-17T01:37:34.304Z,91.28
2023-04-17T01:42:36.325Z,91.22
2023-04-17T01:47:37.146Z,91.07
2023-04-17T01:52:39.712Z,90.65
2023-04-17T01:57:42.329Z,90.83
2023-04-17T02:02:43.256Z,90.88
2023-04-17T02:07:44.042Z,91.42
2023-04-17T02:12:46.018Z,91.10
2023-04-17T02:17:46.700Z,91.21
2023-04-17T02:22:47.275Z,90.41
2023-04-17T02:27:49.207Z,90.55
2023-04-17T02:32:51.870Z,90.96
2023-04-17T02:37:52.944Z,89.80
2023-04-17T02:42:57.790Z,90.37
2023-04-17T02:47:58.545Z,90.14
2023-04-17T02:52:59.214Z,90.62
2023-04-17T02:58:01.146Z,90.81
2023-04-17T03:03:03.167Z,91.06
2023-04-17T03:08:04.266Z,91.10
2023-04-17T03:13:12.537Z,91.30
2023-04-17T03:18:13.227Z,91.42
2023-04-17T03:23:13.834Z,91.30
2023-04-17T03:28:15.998Z,91.29
2023-04-17T03:33:17.273Z,91.24
2023-04-17T03:38:18.734Z,91.52
2023-04-17T03:43:20.927Z,91.58
2023-04-17T03:48:21.557Z,91.82
2023-04-17T03:53:24.121Z,91.63
2023-04-17T03:58:26.428Z,92.29
2023-04-17T04:03:27.681Z,92.34
2023-04-17T04:08:28.844Z,92.89
2023-04-17T04:13:30.817Z,93.51
2023-04-17T04:18:35.010Z,93.27
2023-04-17T04:23:37.798Z,93.58
2023-04-17T04:28:40.130Z,93.12
2023-04-17T04:33:47.733Z,93.79
2023-04-17T04:38:49.823Z,92.75
2023-04-17T04:43:59.131Z,93.27
2023-04-17T04:49:00.905Z,93.49
2023-04-17T04:54:02.085Z,93.73
2023-04-17T04:59:04.111Z,93.92
2023-04-17T05:04:08.710Z,93.50
2023-04-17T05:09:09.701Z,93.58
2023-04-17T05:14:12.183Z,93.83
2023-04-17T05:19:13.626Z,94.13
2023-04-17T05:24:23.105Z,93.54
2023-04-17T05:29:25.817Z,93.28
2023-04-17T05:34:27.220Z,93.15
2023-04-17T05:39:28.316Z,92.81
2023-04-17T05:44:31.369Z,92.65
2023-04-17T05:49:32.108Z,91.98
2023-04-17T05:54:32.768Z,91.18
2023-04-17T05:59:34.857Z,91.84
2023-04-17T06:04:36.211Z,91.67
2023-04-17T06:09:37.706Z,91.55
2023-04-17T06:14:39.629Z,91.75
2023-04-17T06:19:42.191Z,91.68
2023-04-17T06:24:42.780Z,90.96
2023-04-17T06:29:44.783Z,91.25
2023-04-17T06:34:58.578Z,90.91
2023-04-17T06:40:13.453Z,91.27
2023-04-17T06:45:15.852Z,91.31
2023-04-17T06:50:16.766Z,90.90
2023-04-17T06:55:17.943Z,89.84
2023-04-17T07:00:21.239Z,90.57
2023-04-17T07:05:21.862Z,89.62
2023-04-17T07:10:22.466Z,89.90
2023-04-17T07:15:24.467Z,89.68
2023-04-17T07:20:25.524Z,90.08
2023-04-17T07:25:26.449Z,90.26
2023-04-17T07:30:28.632Z,89.55
2023-04-17T07:35:29.522Z,89.25
2023-04-17T07:40:30.618Z,89.30
2023-04-17T07:45:33.648Z,88.90
2023-04-17T07:50:34.463Z,89.26
2023-04-17T07:55:35.688Z,89.38
2023-04-17T08:00:37.792Z,88.82
2023-04-17T08:05:38.470Z,88.65
2023-04-17T08:10:39.062Z,88.29
2023-04-17T08:15:41.023Z,88.47
2023-04-17T08:20:41.873Z,87.88
2023-04-17T08:25:42.666Z,87.37
2023-04-17T08:30:44.760Z,88.03
2023-04-17T08:35:45.738Z,87.73
2023-04-17T08:40:52.102Z,84.69
2023-04-17T08:45:55.396Z,84.21
2023-04-17T08:50:56.310Z,82.18
2023-04-17T08:55:58.994Z,83.96
2023-04-17T09:01:09.021Z,84.20
2023-04-17T09:06:10.872Z,82.05
2023-04-17T09:11:17.662Z,79.64
2023-04-17T09:16:20.540Z,80.38
2023-04-17T09:21:21.229Z,78.38
2023-04-17T09:26:23.838Z,77.36
2023-04-17T09:31:27.788Z,76.56
2023-04-17T09:36:30.580Z,76.99
2023-04-17T09:41:33.301Z,77.63
2023-04-17T09:46:38.491Z,77.94
2023-04-17T09:51:39.869Z,77.77
2023-04-17T09:56:41.191Z,75.39
2023-04-17T10:01:43.606Z,75.98
2023-04-17T10:06:44.340Z,76.01
2023-04-17T10:11:47.106Z,77.83
2023-04-17T10:16:50.489Z,77.80
2023-04-17T10:22:24.860Z,77.10
2023-04-17T10:27:48.198Z,77.96
2023-04-17T10:33:22.623Z,75.52
2023-04-17T10:38:35.621Z,74.85
2023-04-17T10:43:36.257Z,74.70
2023-04-17T10:48:39.070Z,72.35
2023-04-17T10:53:46.276Z,70.71
2023-04-17T10:58:58.556Z,72.02
2023-04-17T11:04:00.573Z,73.57
2023-04-17T11:09:03.313Z,73.94
2023-04-17T11:14:06.957Z,74.20
2023-04-17T11:19:09.870Z,73.96
2023-04-17T11:24:12.133Z,73.18
2023-04-17T11:29:16.882Z,74.89
2023-04-17T11:34:17.743Z,75.73
2023-04-17T11:39:20.360Z,75.56
2023-04-17T11:44:21.322Z,73.30
2023-04-17T11:49:26.389Z,73.77
2023-04-17T11:54:28.801Z,72.97
2023-04-17T11:59:34.212Z,70.64
2023-04-17T12:04:36.465Z,69.67
2023-04-17T12:09:38.756Z,70.21
2023-04-17T12:14:39.384Z,69.50
2023-04-17T12:19:39.978Z,69.56
2023-04-17T12:24:41.939Z,69.09
2023-04-17T12:29:44.823Z,68.59
2023-04-17T12:34:46.033Z,68.53
2023-04-17T12:39:48.110Z,69.08
2023-04-17T12:44:48.692Z,69.06
2023-04-17T12:49:49.266Z,68.26
2023-04-17T12:54:51.665Z,67.76
2023-04-17T12:59:53.051Z,67.40
2023-04-17T13:04:54.002Z,68.08
2023-04-17T13:09:55.916Z,67.84
2023-04-17T13:14:57.537Z,68.53
2023-04-17T13:19:58.191Z,67.73
2023-04-17T13:25:00.248Z,67.89
2023-04-17T13:30:00.907Z,68.11
2023-04-17T13:35:02.142Z,67.58
2023-04-17T13:40:05.678Z,69.44
2023-04-17T13:45:08.160Z,69.31
2023-04-17T13:50:10.506Z,70.11
2023-04-17T13:55:14.791Z,70.13
2023-04-17T14:00:17.297Z,70.27
2023-04-17T14:05:18.119Z,69.74
2023-04-17T14:10:20.423Z,70.70
2023-04-17T14:15:32.634Z,70.98
2023-04-17T14:20:35.940Z,71.21
2023-04-17T14:25:38.560Z,71.17
2023-04-17T14:30:39.240Z,70.88
2023-04-17T14:35:40.513Z,71.09
2023-04-17T14:40:42.457Z,70.51
2023-04-17T14:45:43.131Z,70.48
2023-04-17T14:50:43.813Z,69.08
2023-04-17T14:55:46.264Z,68.70
2023-04-17T15:00:47.161Z,66.52
2023-04-17T15:05:48.065Z,65.99
2023-04-17T15:10:51.466Z,65.53
2023-04-17T15:15:52.925Z,64.61
2023-04-17T15:20:53.611Z,63.33
2023-04-17T15:25:57.381Z,63.59
2023-04-17T15:30:58.011Z,65.58
2023-04-17T15:35:59.517Z,67.08
2023-04-17T15:41:03.515Z,68.09
2023-04-17T15:46:04.444Z,68.24
2023-04-17T15:51:05.591Z,69.78
2023-04-17T15:56:08.434Z,71.07
2023-04-17T16:01:10.663Z,71.74
2023-04-17T16:06:12.002Z,71.47
2023-04-17T16:11:14.104Z,72.33
2023-04-17T16:16:14.956Z,72.87
2023-04-17T16:21:15.671Z,72.41
2023-04-17T16:26:17.593Z,72.76
2023-04-17T16:31:18.326Z,73.49
2023-04-17T16:36:19.194Z,73.68
2023-04-17T16:41:21.413Z,75.75
2023-04-17T16:46:35.538Z,73.02
2023-04-17T16:51:45.708Z,73.25
2023-04-17T16:56:47.934Z,73.95
2023-04-17T17:01:49.715Z,73.85
2023-04-17T17:06:50.731Z,73.43
2023-04-17T17:11:52.675Z,74.17
2023-04-17T17:16:53.402Z,74.48
2023-04-17T17:21:55.130Z,74.83
2023-04-17T17:26:57.334Z,74.98
2023-04-17T17:31:58.071Z,75.11
2023-04-17T17:36:59.877Z,75.53
2023-04-17T17:42:04.265Z,75.94
2023-04-17T17:47:07.045Z,75.89
2023-04-17T17:52:09.996Z,76.17
2023-04-17T17:57:12.085Z,76.17
2023-04-17T18:02:13.588Z,76.49
2023-04-17T18:07:14.556Z,77.40
2023-04-17T18:12:17.322Z,77.44
2023-04-17T18:17:19.440Z,77.48
2023-04-17T18:22:20.650Z,78.46
2023-04-17T18:27:23.035Z,77.96
2023-04-17T18:32:23.911Z,77.83
2023-04-17T18:37:26.865Z,78.57
2023-04-17T18:42:28.929Z,78.57
2023-04-17T18:47:29.604Z,79.11
2023-04-17T18:52:30.253Z,79.20
2023-04-17T18:57:32.214Z,79.60
2023-04-17T19:02:33.033Z,79.85
2023-04-17T19:07:33.798Z,79.52
2023-04-17T19:12:36.079Z,79.44
2023-04-17T19:17:36.794Z,80.15
2023-04-17T19:22:37.432Z,80.54
2023-04-17T19:27:39.401Z,80.80
2023-04-17T19:32:40.104Z,80.99
2023-04-17T19:37:40.923Z,80.88
2023-04-17T19:42:42.989Z,82.08
2023-04-17T19:47:43.595Z,82.97
2023-04-17T19:52:44.291Z,82.69
2023-04-17T19:57:46.241Z,82.99
2023-04-17T20:02:47.862Z,83.17
2023-04-17T20:07:48.638Z,82.44
2023-04-17T20:12:50.572Z,82.96
2023-04-17T20:17:52.034Z,83.40
2023-04-17T20:22:53.128Z,84.50
2023-04-17T20:27:55.544Z,83.96
2023-04-17T20:32:56.235Z,84.78
2023-04-17T20:37:57.373Z,84.67
2023-04-17T20:42:59.351Z,85.92
2023-04-17T20:48:00.109Z,86.97
2023-04-17T20:53:00.839Z,87.90
2023-04-17T20:58:02.767Z,88.70
2023-04-17T21:03:03.607Z,88.52
2023-04-17T21:08:04.262Z,89.25
2023-04-17T21:13:06.157Z,89.33
2023-04-17T21:18:06.838Z,89.24
2023-04-17T21:23:07.479Z,88.52
2023-04-17T21:28:09.392Z,88.55
2023-04-17T21:33:10.033Z,89.04
2023-04-17T21:38:10.675Z,88.92
2023-04-17T21:43:12.615Z,88.72
2023-04-17T21:48:15.121Z,88.15
2023-04-17T21:53:15.768Z,88.80
2023-04-17T21:58:17.665Z,88.37
2023-04-17T22:03:18.733Z,88.57
2023-04-17T22:08:19.323Z,88.84
2023-04-17T22:13:21.272Z,88.73
2023-04-17T22:18:21.892Z,88.30
2023-04-17T22:23:22.482Z,88.16
2023-04-17T22:28:25.661Z,88.26
2023-04-17T22:33:26.459Z,88.53
2023-04-17T22:38:27.072Z,88.26
2023-04-17T22:43:28.955Z,88.68
2023-04-17T22:48:29.536Z,89.44
2023-04-17T22:53:31.437Z,89.10
2023-04-17T22:58:34.944Z,90.13
2023-04-17T23:03:35.735Z,89.52
2023-04-17T23:08:36.320Z,90.02
2023-04-17T23:13:38.237Z,89.43
2023-04-17T23:18:38.816Z,89.84
2023-04-17T23:23:39.406Z,90.06
2023-04-17T23:28:41.407Z,90.37
2023-04-17T23:33:41.959Z,90.24
2023-04-17T23:38:42.632Z,90.08
2023-04-17T23:43:44.652Z,89.43
2023-04-17T23:48:45.218Z,89.43
2023-04-17T23:53:46.321Z,89.41
2023-04-17T23:58:48.200Z,89.28
